sensor_id;sensor_type;location;lat;lon;timestamp;P1;durP1;ratioP1;P2;durP2;ratioP2
13793;SDS011;31160;49.500;7.772;2023-05-24T00:01:54;12.07;;;9.73;;
13793;SDS011;31160;49.500;7.772;2023-05-24T00:04:22;11.23;;;8.60;;
13793;SDS011;31160;49.500;7.772;2023-05-24T00:06:50;9.90;;;8.40;;
13793;SDS011;31160;49.500;7.772;2023-05-24T00:09:20;12.63;;;8.70;;
13793;SDS011;31160;49.500;7.772;2023-05-24T00:11:47;11.77;;;8.93;;
13793;SDS011;31160;49.500;7.772;2023-05-24T00:14:14;11.90;;;9.30;;
13793;SDS011;31160;49.500;7.772;2023-05-24T00:16:41;16.73;;;9.53;;
13793;SDS011;31160;49.500;7.772;2023-05-24T00:19:08;16.90;;;8.67;;
13793;SDS011;31160;49.500;7.772;2023-05-24T00:21:36;11.10;;;8.40;;
13793;SDS011;31160;49.500;7.772;2023-05-24T00:24:03;9.93;;;8.00;;
13793;SDS011;31160;49.500;7.772;2023-05-24T00:26:31;15.13;;;7.87;;
13793;SDS011;31160;49.500;7.772;2023-05-24T00:28:58;11.27;;;7.20;;
13793;SDS011;31160;49.500;7.772;2023-05-24T00:31:25;13.00;;;7.47;;
13793;SDS011;31160;49.500;7.772;2023-05-24T00:33:51;9.67;;;6.63;;
13793;SDS011;31160;49.500;7.772;2023-05-24T00:36:18;11.30;;;7.87;;
13793;SDS011;31160;49.500;7.772;2023-05-24T00:38:46;14.07;;;8.80;;
13793;SDS011;31160;49.500;7.772;2023-05-24T00:41:14;12.87;;;7.60;;
13793;SDS011;31160;49.500;7.772;2023-05-24T00:43:41;9.43;;;7.43;;
13793;SDS011;31160;49.500;7.772;2023-05-24T00:48:44;9.63;;;7.33;;
13793;SDS011;31160;49.500;7.772;2023-05-24T00:51:11;10.23;;;6.50;;
13793;SDS011;31160;49.500;7.772;2023-05-24T00:53:40;12.10;;;7.10;;
13793;SDS011;31160;49.500;7.772;2023-05-24T00:56:10;10.50;;;6.77;;
13793;SDS011;31160;49.500;7.772;2023-05-24T00:58:41;9.90;;;6.40;;
13793;SDS011;31160;49.500;7.772;2023-05-24T01:01:09;13.63;;;6.37;;
13793;SDS011;31160;49.500;7.772;2023-05-24T01:03:36;9.03;;;6.00;;
13793;SDS011;31160;49.500;7.772;2023-05-24T01:06:04;11.10;;;6.93;;
13793;SDS011;31160;49.500;7.772;2023-05-24T01:17:16;7.87;;;5.37;;
13793;SDS011;31160;49.500;7.772;2023-05-24T01:22:28;9.27;;;5.27;;
13793;SDS011;31160;49.500;7.772;2023-05-24T01:25:03;9.40;;;4.90;;
13793;SDS011;31160;49.500;7.772;2023-05-24T01:27:54;11.70;;;4.83;;
13793;SDS011;31160;49.500;7.772;2023-05-24T01:30:22;10.30;;;4.90;;
13793;SDS011;31160;49.500;7.772;2023-05-24T01:32:51;10.07;;;4.50;;
13793;SDS011;31160;49.500;7.772;2023-05-24T01:35:18;12.73;;;4.60;;
13793;SDS011;31160;49.500;7.772;2023-05-24T01:37:45;9.30;;;4.40;;
13793;SDS011;31160;49.500;7.772;2023-05-24T01:40:12;7.40;;;4.70;;
13793;SDS011;31160;49.500;7.772;2023-05-24T01:42:48;11.60;;;4.33;;
13793;SDS011;31160;49.500;7.772;2023-05-24T01:45:26;8.60;;;3.97;;
13793;SDS011;31160;49.500;7.772;2023-05-24T01:48:13;8.90;;;3.63;;
13793;SDS011;31160;49.500;7.772;2023-05-24T01:50:45;12.63;;;3.50;;
13793;SDS011;31160;49.500;7.772;2023-05-24T01:53:17;8.17;;;3.83;;
13793;SDS011;31160;49.500;7.772;2023-05-24T01:55:47;10.93;;;3.97;;
13793;SDS011;31160;49.500;7.772;2023-05-24T01:58:16;12.77;;;4.17;;
13793;SDS011;31160;49.500;7.772;2023-05-24T02:00:46;8.90;;;3.47;;
13793;SDS011;31160;49.500;7.772;2023-05-24T02:03:13;9.50;;;3.77;;
13793;SDS011;31160;49.500;7.772;2023-05-24T02:05:46;10.17;;;3.80;;
13793;SDS011;31160;49.500;7.772;2023-05-24T02:08:13;8.97;;;3.80;;
13793;SDS011;31160;49.500;7.772;2023-05-24T02:10:40;9.60;;;4.23;;
13793;SDS011;31160;49.500;7.772;2023-05-24T02:13:08;11.83;;;4.00;;
13793;SDS011;31160;49.500;7.772;2023-05-24T02:15:35;9.07;;;3.77;;
13793;SDS011;31160;49.500;7.772;2023-05-24T02:18:02;12.07;;;4.07;;
13793;SDS011;31160;49.500;7.772;2023-05-24T02:20:29;11.97;;;3.90;;
13793;SDS011;31160;49.500;7.772;2023-05-24T02:22:57;8.13;;;3.60;;
13793;SDS011;31160;49.500;7.772;2023-05-24T02:25:25;15.33;;;4.40;;
13793;SDS011;31160;49.500;7.772;2023-05-24T02:27:52;12.77;;;3.90;;
13793;SDS011;31160;49.500;7.772;2023-05-24T02:30:18;12.73;;;3.40;;
13793;SDS011;31160;49.500;7.772;2023-05-24T02:32:45;7.83;;;3.40;;
13793;SDS011;31160;49.500;7.772;2023-05-24T02:35:12;8.00;;;3.20;;
13793;SDS011;31160;49.500;7.772;2023-05-24T02:37:39;11.30;;;3.10;;
13793;SDS011;31160;49.500;7.772;2023-05-24T02:40:06;9.57;;;2.90;;
13793;SDS011;31160;49.500;7.772;2023-05-24T02:42:33;10.70;;;3.63;;
13793;SDS011;31160;49.500;7.772;2023-05-24T02:45:00;12.37;;;3.23;;
13793;SDS011;31160;49.500;7.772;2023-05-24T02:47:27;8.60;;;2.77;;
13793;SDS011;31160;49.500;7.772;2023-05-24T02:49:54;7.80;;;2.80;;
13793;SDS011;31160;49.500;7.772;2023-05-24T02:52:21;7.33;;;3.10;;
13793;SDS011;31160;49.500;7.772;2023-05-24T02:54:48;10.17;;;2.93;;
13793;SDS011;31160;49.500;7.772;2023-05-24T02:57:17;10.43;;;3.40;;
13793;SDS011;31160;49.500;7.772;2023-05-24T02:59:44;9.20;;;3.30;;
13793;SDS011;31160;49.500;7.772;2023-05-24T03:02:11;10.07;;;2.93;;
13793;SDS011;31160;49.500;7.772;2023-05-24T03:04:41;9.37;;;2.87;;
13793;SDS011;31160;49.500;7.772;2023-05-24T03:07:10;7.50;;;2.63;;
13793;SDS011;31160;49.500;7.772;2023-05-24T03:09:37;10.07;;;3.83;;
13793;SDS011;31160;49.500;7.772;2023-05-24T03:12:04;11.50;;;3.27;;
13793;SDS011;31160;49.500;7.772;2023-05-24T03:14:32;7.73;;;2.73;;
13793;SDS011;31160;49.500;7.772;2023-05-24T03:16:59;10.40;;;2.90;;
13793;SDS011;31160;49.500;7.772;2023-05-24T03:19:26;14.40;;;2.93;;
13793;SDS011;31160;49.500;7.772;2023-05-24T03:21:53;8.23;;;3.10;;
13793;SDS011;31160;49.500;7.772;2023-05-24T03:24:20;6.37;;;2.80;;
13793;SDS011;31160;49.500;7.772;2023-05-24T03:26:47;9.13;;;2.97;;
13793;SDS011;31160;49.500;7.772;2023-05-24T03:29:15;10.60;;;3.47;;
13793;SDS011;31160;49.500;7.772;2023-05-24T03:31:42;13.97;;;3.23;;
13793;SDS011;31160;49.500;7.772;2023-05-24T03:34:09;9.20;;;2.40;;
13793;SDS011;31160;49.500;7.772;2023-05-24T03:36:37;7.73;;;2.63;;
13793;SDS011;31160;49.500;7.772;2023-05-24T03:39:04;8.23;;;3.00;;
13793;SDS011;31160;49.500;7.772;2023-05-24T03:41:39;10.93;;;3.00;;
13793;SDS011;31160;49.500;7.772;2023-05-24T03:44:09;15.77;;;3.10;;
13793;SDS011;31160;49.500;7.772;2023-05-24T03:46:35;9.03;;;2.90;;
13793;SDS011;31160;49.500;7.772;2023-05-24T03:49:03;10.87;;;2.90;;
13793;SDS011;31160;49.500;7.772;2023-05-24T03:51:31;10.10;;;2.83;;
13793;SDS011;31160;49.500;7.772;2023-05-24T03:53:58;11.93;;;3.20;;
13793;SDS011;31160;49.500;7.772;2023-05-24T03:56:25;10.77;;;3.40;;
13793;SDS011;31160;49.500;7.772;2023-05-24T03:58:52;9.90;;;2.87;;
13793;SDS011;31160;49.500;7.772;2023-05-24T04:01:19;6.70;;;2.60;;
13793;SDS011;31160;49.500;7.772;2023-05-24T04:03:59;10.77;;;2.90;;
13793;SDS011;31160;49.500;7.772;2023-05-24T04:06:27;9.70;;;3.00;;
13793;SDS011;31160;49.500;7.772;2023-05-24T04:08:58;8.40;;;2.70;;
13793;SDS011;31160;49.500;7.772;2023-05-24T04:11:27;13.70;;;2.70;;
13793;SDS011;31160;49.500;7.772;2023-05-24T04:13:54;11.70;;;3.10;;
13793;SDS011;31160;49.500;7.772;2023-05-24T04:16:22;8.77;;;3.10;;
13793;SDS011;31160;49.500;7.772;2023-05-24T04:18:52;10.23;;;3.23;;
13793;SDS011;31160;49.500;7.772;2023-05-24T04:21:20;5.57;;;2.23;;
13793;SDS011;31160;49.500;7.772;2023-05-24T04:23:47;8.63;;;2.30;;
13793;SDS011;31160;49.500;7.772;2023-05-24T04:26:14;10.50;;;2.87;;
13793;SDS011;31160;49.500;7.772;2023-05-24T04:28:41;9.63;;;2.73;;
13793;SDS011;31160;49.500;7.772;2023-05-24T04:31:08;11.83;;;2.63;;
13793;SDS011;31160;49.500;7.772;2023-05-24T04:33:35;11.40;;;2.87;;
13793;SDS011;31160;49.500;7.772;2023-05-24T04:36:02;12.43;;;2.70;;
13793;SDS011;31160;49.500;7.772;2023-05-24T04:38:29;11.57;;;3.20;;
13793;SDS011;31160;49.500;7.772;2023-05-24T04:40:57;8.30;;;2.57;;
13793;SDS011;31160;49.500;7.772;2023-05-24T04:43:24;9.50;;;2.33;;
13793;SDS011;31160;49.500;7.772;2023-05-24T04:45:52;8.93;;;2.50;;
13793;SDS011;31160;49.500;7.772;2023-05-24T04:48:23;8.17;;;2.40;;
13793;SDS011;31160;49.500;7.772;2023-05-24T04:50:50;13.53;;;3.07;;
13793;SDS011;31160;49.500;7.772;2023-05-24T04:53:18;10.37;;;2.70;;
13793;SDS011;31160;49.500;7.772;2023-05-24T04:55:46;11.93;;;2.37;;
13793;SDS011;31160;49.500;7.772;2023-05-24T04:58:14;8.43;;;2.53;;
13793;SDS011;31160;49.500;7.772;2023-05-24T05:00:41;6.30;;;2.40;;
13793;SDS011;31160;49.500;7.772;2023-05-24T05:03:09;9.93;;;2.70;;
13793;SDS011;31160;49.500;7.772;2023-05-24T05:05:36;7.47;;;2.43;;
13793;SDS011;31160;49.500;7.772;2023-05-24T05:08:03;11.70;;;2.60;;
13793;SDS011;31160;49.500;7.772;2023-05-24T05:10:31;6.93;;;2.37;;
13793;SDS011;31160;49.500;7.772;2023-05-24T05:12:57;5.97;;;2.13;;
13793;SDS011;31160;49.500;7.772;2023-05-24T05:15:24;8.37;;;2.30;;
13793;SDS011;31160;49.500;7.772;2023-05-24T05:17:51;8.37;;;3.10;;
13793;SDS011;31160;49.500;7.772;2023-05-24T05:20:18;8.60;;;2.30;;
13793;SDS011;31160;49.500;7.772;2023-05-24T05:22:48;7.10;;;2.77;;
13793;SDS011;31160;49.500;7.772;2023-05-24T05:25:15;8.07;;;2.30;;
13793;SDS011;31160;49.500;7.772;2023-05-24T05:27:42;6.70;;;2.40;;
13793;SDS011;31160;49.500;7.772;2023-05-24T05:30:09;8.47;;;2.53;;
13793;SDS011;31160;49.500;7.772;2023-05-24T05:32:36;10.40;;;2.87;;
13793;SDS011;31160;49.500;7.772;2023-05-24T05:35:04;7.90;;;2.87;;
13793;SDS011;31160;49.500;7.772;2023-05-24T05:37:31;9.70;;;2.70;;
13793;SDS011;31160;49.500;7.772;2023-05-24T05:39:57;13.03;;;2.60;;
13793;SDS011;31160;49.500;7.772;2023-05-24T05:42:24;6.37;;;1.93;;
13793;SDS011;31160;49.500;7.772;2023-05-24T05:44:51;8.77;;;2.53;;
13793;SDS011;31160;49.500;7.772;2023-05-24T05:47:18;7.47;;;2.60;;
13793;SDS011;31160;49.500;7.772;2023-05-24T05:49:45;8.33;;;2.10;;
13793;SDS011;31160;49.500;7.772;2023-05-24T05:52:12;11.47;;;3.00;;
13793;SDS011;31160;49.500;7.772;2023-05-24T05:54:38;9.20;;;2.47;;
13793;SDS011;31160;49.500;7.772;2023-05-24T05:57:05;7.53;;;2.43;;
13793;SDS011;31160;49.500;7.772;2023-05-24T05:59:35;5.53;;;1.73;;
13793;SDS011;31160;49.500;7.772;2023-05-24T06:02:03;8.23;;;2.30;;
13793;SDS011;31160;49.500;7.772;2023-05-24T06:04:32;5.43;;;2.30;;
13793;SDS011;31160;49.500;7.772;2023-05-24T06:06:59;8.03;;;2.40;;
13793;SDS011;31160;49.500;7.772;2023-05-24T06:09:26;7.27;;;2.50;;
13793;SDS011;31160;49.500;7.772;2023-05-24T06:11:53;8.07;;;2.40;;
13793;SDS011;31160;49.500;7.772;2023-05-24T06:14:20;7.43;;;2.60;;
13793;SDS011;31160;49.500;7.772;2023-05-24T06:16:47;6.87;;;2.00;;
13793;SDS011;31160;49.500;7.772;2023-05-24T06:19:14;8.83;;;2.30;;
13793;SDS011;31160;49.500;7.772;2023-05-24T06:21:41;8.03;;;1.80;;
13793;SDS011;31160;49.500;7.772;2023-05-24T06:24:13;9.03;;;2.33;;
13793;SDS011;31160;49.500;7.772;2023-05-24T06:26:41;12.10;;;2.70;;
13793;SDS011;31160;49.500;7.772;2023-05-24T06:29:08;8.53;;;2.10;;
13793;SDS011;31160;49.500;7.772;2023-05-24T06:31:35;10.10;;;2.70;;
13793;SDS011;31160;49.500;7.772;2023-05-24T06:34:02;7.90;;;2.43;;
13793;SDS011;31160;49.500;7.772;2023-05-24T06:36:30;10.97;;;2.03;;
13793;SDS011;31160;49.500;7.772;2023-05-24T06:39:06;8.70;;;2.30;;
13793;SDS011;31160;49.500;7.772;2023-05-24T06:41:36;9.80;;;2.50;;
13793;SDS011;31160;49.500;7.772;2023-05-24T06:44:04;7.77;;;2.53;;
13793;SDS011;31160;49.500;7.772;2023-05-24T06:46:31;11.00;;;2.87;;
13793;SDS011;31160;49.500;7.772;2023-05-24T06:48:58;9.40;;;2.50;;
13793;SDS011;31160;49.500;7.772;2023-05-24T06:51:25;9.70;;;2.67;;
13793;SDS011;31160;49.500;7.772;2023-05-24T06:53:51;11.97;;;3.20;;
13793;SDS011;31160;49.500;7.772;2023-05-24T06:56:18;9.93;;;2.63;;
13793;SDS011;31160;49.500;7.772;2023-05-24T06:58:45;9.13;;;2.20;;
13793;SDS011;31160;49.500;7.772;2023-05-24T07:01:13;9.93;;;2.40;;
13793;SDS011;31160;49.500;7.772;2023-05-24T07:03:40;11.47;;;2.80;;
13793;SDS011;31160;49.500;7.772;2023-05-24T07:06:07;10.60;;;2.70;;
13793;SDS011;31160;49.500;7.772;2023-05-24T07:08:37;9.40;;;2.67;;
13793;SDS011;31160;49.500;7.772;2023-05-24T07:11:04;7.13;;;2.10;;
13793;SDS011;31160;49.500;7.772;2023-05-24T07:13:31;12.07;;;2.43;;
13793;SDS011;31160;49.500;7.772;2023-05-24T07:15:58;8.43;;;2.27;;
13793;SDS011;31160;49.500;7.772;2023-05-24T07:18:25;8.80;;;2.60;;
13793;SDS011;31160;49.500;7.772;2023-05-24T07:20:51;13.90;;;2.90;;
13793;SDS011;31160;49.500;7.772;2023-05-24T07:23:19;8.03;;;2.33;;
13793;SDS011;31160;49.500;7.772;2023-05-24T07:25:46;7.83;;;1.90;;
13793;SDS011;31160;49.500;7.772;2023-05-24T07:28:13;7.63;;;2.63;;
13793;SDS011;31160;49.500;7.772;2023-05-24T07:30:43;8.37;;;2.73;;
13793;SDS011;31160;49.500;7.772;2023-05-24T07:33:09;7.83;;;2.10;;
13793;SDS011;31160;49.500;7.772;2023-05-24T07:35:36;8.73;;;2.40;;
13793;SDS011;31160;49.500;7.772;2023-05-24T07:38:04;9.43;;;2.57;;
13793;SDS011;31160;49.500;7.772;2023-05-24T07:40:32;16.50;;;2.70;;
13793;SDS011;31160;49.500;7.772;2023-05-24T07:42:59;11.27;;;2.23;;
13793;SDS011;31160;49.500;7.772;2023-05-24T07:45:26;8.20;;;1.97;;
13793;SDS011;31160;49.500;7.772;2023-05-24T07:47:52;6.63;;;2.07;;
13793;SDS011;31160;49.500;7.772;2023-05-24T07:50:22;11.10;;;2.23;;
13793;SDS011;31160;49.500;7.772;2023-05-24T07:52:49;10.47;;;2.67;;
13793;SDS011;31160;49.500;7.772;2023-05-24T07:55:16;11.20;;;2.03;;
13793;SDS011;31160;49.500;7.772;2023-05-24T07:57:43;6.30;;;1.93;;
13793;SDS011;31160;49.500;7.772;2023-05-24T08:00:10;7.77;;;2.23;;
13793;SDS011;31160;49.500;7.772;2023-05-24T08:02:40;9.80;;;2.50;;
13793;SDS011;31160;49.500;7.772;2023-05-24T08:05:07;11.00;;;2.50;;
13793;SDS011;31160;49.500;7.772;2023-05-24T08:07:38;9.90;;;2.53;;
13793;SDS011;31160;49.500;7.772;2023-05-24T08:10:06;5.57;;;1.90;;
13793;SDS011;31160;49.500;7.772;2023-05-24T08:12:34;7.50;;;1.87;;
13793;SDS011;31160;49.500;7.772;2023-05-24T08:15:01;8.10;;;2.50;;
13793;SDS011;31160;49.500;7.772;2023-05-24T08:17:28;7.90;;;2.07;;
13793;SDS011;31160;49.500;7.772;2023-05-24T08:19:56;6.60;;;2.30;;
13793;SDS011;31160;49.500;7.772;2023-05-24T08:22:23;7.40;;;1.77;;
13793;SDS011;31160;49.500;7.772;2023-05-24T08:24:51;7.73;;;2.07;;
13793;SDS011;31160;49.500;7.772;2023-05-24T08:27:18;6.93;;;1.90;;
13793;SDS011;31160;49.500;7.772;2023-05-24T08:29:45;4.33;;;1.53;;
13793;SDS011;31160;49.500;7.772;2023-05-24T08:32:11;9.50;;;1.90;;
13793;SDS011;31160;49.500;7.772;2023-05-24T08:34:38;13.87;;;2.73;;
13793;SDS011;31160;49.500;7.772;2023-05-24T08:37:05;5.83;;;1.90;;
13793;SDS011;31160;49.500;7.772;2023-05-24T08:39:34;8.50;;;2.00;;
13793;SDS011;31160;49.500;7.772;2023-05-24T08:42:01;12.93;;;2.33;;
13793;SDS011;31160;49.500;7.772;2023-05-24T08:44:33;7.57;;;2.13;;
13793;SDS011;31160;49.500;7.772;2023-05-24T08:47:27;5.03;;;2.10;;
13793;SDS011;31160;49.500;7.772;2023-05-24T08:49:56;9.67;;;2.33;;
13793;SDS011;31160;49.500;7.772;2023-05-24T08:52:23;8.13;;;2.07;;
13793;SDS011;31160;49.500;7.772;2023-05-24T08:54:50;10.57;;;2.23;;
13793;SDS011;31160;49.500;7.772;2023-05-24T08:57:18;10.00;;;1.60;;
13793;SDS011;31160;49.500;7.772;2023-05-24T08:59:46;9.30;;;2.30;;
13793;SDS011;31160;49.500;7.772;2023-05-24T09:02:14;7.97;;;1.90;;
13793;SDS011;31160;49.500;7.772;2023-05-24T09:04:41;6.80;;;1.70;;
13793;SDS011;31160;49.500;7.772;2023-05-24T09:07:11;5.83;;;1.60;;
13793;SDS011;31160;49.500;7.772;2023-05-24T09:09:42;7.70;;;1.80;;
13793;SDS011;31160;49.500;7.772;2023-05-24T09:12:16;5.70;;;1.90;;
13793;SDS011;31160;49.500;7.772;2023-05-24T09:15:03;5.80;;;1.90;;
13793;SDS011;31160;49.500;7.772;2023-05-24T09:17:33;6.00;;;1.80;;
13793;SDS011;31160;49.500;7.772;2023-05-24T09:20:01;6.97;;;2.20;;
13793;SDS011;31160;49.500;7.772;2023-05-24T09:22:32;5.63;;;1.80;;
13793;SDS011;31160;49.500;7.772;2023-05-24T09:25:04;5.77;;;1.90;;
13793;SDS011;31160;49.500;7.772;2023-05-24T09:27:32;8.47;;;1.77;;
13793;SDS011;31160;49.500;7.772;2023-05-24T09:30:02;7.27;;;2.10;;
13793;SDS011;31160;49.500;7.772;2023-05-24T09:32:34;3.03;;;1.40;;
13793;SDS011;31160;49.500;7.772;2023-05-24T09:35:01;7.03;;;1.87;;
13793;SDS011;31160;49.500;7.772;2023-05-24T09:37:33;8.70;;;2.07;;
13793;SDS011;31160;49.500;7.772;2023-05-24T09:40:03;9.80;;;2.07;;
13793;SDS011;31160;49.500;7.772;2023-05-24T09:42:32;6.17;;;2.00;;
13793;SDS011;31160;49.500;7.772;2023-05-24T09:44:59;5.97;;;1.33;;
13793;SDS011;31160;49.500;7.772;2023-05-24T09:47:34;7.00;;;1.87;;
13793;SDS011;31160;49.500;7.772;2023-05-24T09:50:03;7.37;;;1.93;;
13793;SDS011;31160;49.500;7.772;2023-05-24T09:52:35;5.47;;;1.63;;
13793;SDS011;31160;49.500;7.772;2023-05-24T09:55:12;5.67;;;1.23;;
13793;SDS011;31160;49.500;7.772;2023-05-24T09:57:41;4.10;;;1.40;;
13793;SDS011;31160;49.500;7.772;2023-05-24T10:00:09;5.53;;;1.53;;
13793;SDS011;31160;49.500;7.772;2023-05-24T10:02:43;5.50;;;1.43;;
13793;SDS011;31160;49.500;7.772;2023-05-24T10:05:31;6.37;;;1.43;;
13793;SDS011;31160;49.500;7.772;2023-05-24T10:07:59;7.83;;;2.30;;
13793;SDS011;31160;49.500;7.772;2023-05-24T10:10:27;5.83;;;1.40;;
13793;SDS011;31160;49.500;7.772;2023-05-24T10:12:55;3.87;;;1.50;;
13793;SDS011;31160;49.500;7.772;2023-05-24T10:15:23;6.73;;;1.83;;
13793;SDS011;31160;49.500;7.772;2023-05-24T10:17:50;5.27;;;1.73;;
13793;SDS011;31160;49.500;7.772;2023-05-24T10:20:18;3.57;;;1.40;;
13793;SDS011;31160;49.500;7.772;2023-05-24T10:22:45;5.40;;;1.77;;
13793;SDS011;31160;49.500;7.772;2023-05-24T10:25:22;5.50;;;1.87;;
13793;SDS011;31160;49.500;7.772;2023-05-24T10:28:02;9.57;;;1.67;;
13793;SDS011;31160;49.500;7.772;2023-05-24T10:33:45;5.47;;;1.77;;
13793;SDS011;31160;49.500;7.772;2023-05-24T10:36:14;4.37;;;1.57;;
13793;SDS011;31160;49.500;7.772;2023-05-24T10:38:46;7.97;;;1.60;;
13793;SDS011;31160;49.500;7.772;2023-05-24T10:41:13;6.40;;;1.83;;
13793;SDS011;31160;49.500;7.772;2023-05-24T10:43:40;4.57;;;1.77;;
13793;SDS011;31160;49.500;7.772;2023-05-24T10:46:31;4.73;;;1.57;;
13793;SDS011;31160;49.500;7.772;2023-05-24T10:48:58;6.63;;;2.23;;
13793;SDS011;31160;49.500;7.772;2023-05-24T10:51:36;7.40;;;1.93;;
13793;SDS011;31160;49.500;7.772;2023-05-24T10:54:11;5.70;;;1.70;;
13793;SDS011;31160;49.500;7.772;2023-05-24T10:56:40;5.07;;;1.60;;
13793;SDS011;31160;49.500;7.772;2023-05-24T11:02:07;6.03;;;2.00;;
13793;SDS011;31160;49.500;7.772;2023-05-24T11:04:40;9.90;;;2.17;;
13793;SDS011;31160;49.500;7.772;2023-05-24T11:07:09;5.50;;;1.67;;
13793;SDS011;31160;49.500;7.772;2023-05-24T11:09:37;5.60;;;1.50;;
13793;SDS011;31160;49.500;7.772;2023-05-24T11:12:18;6.10;;;1.80;;
13793;SDS011;31160;49.500;7.772;2023-05-24T11:14:49;8.83;;;2.07;;
13793;SDS011;31160;49.500;7.772;2023-05-24T11:17:19;4.87;;;1.40;;
13793;SDS011;31160;49.500;7.772;2023-05-24T11:19:53;5.20;;;1.80;;
13793;SDS011;31160;49.500;7.772;2023-05-24T11:22:21;5.63;;;1.77;;
13793;SDS011;31160;49.500;7.772;2023-05-24T11:24:52;6.93;;;1.80;;
13793;SDS011;31160;49.500;7.772;2023-05-24T11:27:19;6.40;;;1.90;;
13793;SDS011;31160;49.500;7.772;2023-05-24T11:29:46;8.83;;;1.70;;
13793;SDS011;31160;49.500;7.772;2023-05-24T11:32:17;8.90;;;1.97;;
13793;SDS011;31160;49.500;7.772;2023-05-24T11:34:46;5.07;;;1.60;;
13793;SDS011;31160;49.500;7.772;2023-05-24T11:37:14;4.97;;;1.73;;
13793;SDS011;31160;49.500;7.772;2023-05-24T11:39:47;4.50;;;1.80;;
13793;SDS011;31160;49.500;7.772;2023-05-24T11:42:17;4.77;;;1.40;;
13793;SDS011;31160;49.500;7.772;2023-05-24T11:44:46;5.27;;;1.60;;
13793;SDS011;31160;49.500;7.772;2023-05-24T11:47:14;4.33;;;1.80;;
13793;SDS011;31160;49.500;7.772;2023-05-24T11:49:41;6.50;;;2.63;;
13793;SDS011;31160;49.500;7.772;2023-05-24T11:52:08;7.70;;;1.67;;
13793;SDS011;31160;49.500;7.772;2023-05-24T11:54:35;4.03;;;1.43;;
13793;SDS011;31160;49.500;7.772;2023-05-24T11:57:03;7.00;;;1.73;;
13793;SDS011;31160;49.500;7.772;2023-05-24T11:59:30;6.00;;;2.00;;
13793;SDS011;31160;49.500;7.772;2023-05-24T12:01:58;4.37;;;1.70;;
13793;SDS011;31160;49.500;7.772;2023-05-24T12:04:32;4.13;;;1.43;;
13793;SDS011;31160;49.500;7.772;2023-05-24T12:07:02;3.03;;;1.70;;
13793;SDS011;31160;49.500;7.772;2023-05-24T12:09:28;4.83;;;1.40;;
13793;SDS011;31160;49.500;7.772;2023-05-24T12:11:55;4.33;;;1.60;;
13793;SDS011;31160;49.500;7.772;2023-05-24T12:14:28;6.10;;;1.33;;
13793;SDS011;31160;49.500;7.772;2023-05-24T12:16:58;4.93;;;1.60;;
13793;SDS011;31160;49.500;7.772;2023-05-24T12:19:32;5.80;;;2.10;;
13793;SDS011;31160;49.500;7.772;2023-05-24T12:22:03;7.20;;;1.60;;
13793;SDS011;31160;49.500;7.772;2023-05-24T12:24:31;4.57;;;1.90;;
13793;SDS011;31160;49.500;7.772;2023-05-24T12:26:59;6.87;;;2.10;;
13793;SDS011;31160;49.500;7.772;2023-05-24T12:29:31;7.73;;;1.83;;
13793;SDS011;31160;49.500;7.772;2023-05-24T12:32:08;5.23;;;1.87;;
13793;SDS011;31160;49.500;7.772;2023-05-24T12:34:40;3.57;;;1.83;;
13793;SDS011;31160;49.500;7.772;2023-05-24T12:37:08;5.87;;;2.03;;
13793;SDS011;31160;49.500;7.772;2023-05-24T12:39:37;5.20;;;1.53;;
13793;SDS011;31160;49.500;7.772;2023-05-24T12:42:04;4.00;;;1.30;;
13793;SDS011;31160;49.500;7.772;2023-05-24T12:44:36;6.83;;;1.97;;
13793;SDS011;31160;49.500;7.772;2023-05-24T12:47:04;5.17;;;2.17;;
13793;SDS011;31160;49.500;7.772;2023-05-24T12:49:32;6.67;;;2.40;;
13793;SDS011;31160;49.500;7.772;2023-05-24T12:51:59;6.43;;;1.87;;
13793;SDS011;31160;49.500;7.772;2023-05-24T12:54:29;7.23;;;1.87;;
13793;SDS011;31160;49.500;7.772;2023-05-24T12:56:56;5.83;;;1.73;;
13793;SDS011;31160;49.500;7.772;2023-05-24T12:59:28;8.53;;;2.07;;
13793;SDS011;31160;49.500;7.772;2023-05-24T13:01:55;8.23;;;2.07;;
13793;SDS011;31160;49.500;7.772;2023-05-24T13:04:22;7.87;;;2.20;;
13793;SDS011;31160;49.500;7.772;2023-05-24T13:06:52;4.60;;;1.70;;
13793;SDS011;31160;49.500;7.772;2023-05-24T13:09:19;6.43;;;2.13;;
13793;SDS011;31160;49.500;7.772;2023-05-24T13:11:48;8.00;;;1.87;;
13793;SDS011;31160;49.500;7.772;2023-05-24T13:14:15;5.63;;;2.13;;
13793;SDS011;31160;49.500;7.772;2023-05-24T13:16:42;4.23;;;1.43;;
13793;SDS011;31160;49.500;7.772;2023-05-24T13:19:09;7.07;;;2.10;;
13793;SDS011;31160;49.500;7.772;2023-05-24T13:21:37;6.37;;;1.73;;
13793;SDS011;31160;49.500;7.772;2023-05-24T13:24:04;4.10;;;1.60;;
13793;SDS011;31160;49.500;7.772;2023-05-24T13:26:32;6.07;;;2.03;;
13793;SDS011;31160;49.500;7.772;2023-05-24T13:29:04;6.23;;;1.93;;
13793;SDS011;31160;49.500;7.772;2023-05-24T13:31:34;7.63;;;2.77;;
13793;SDS011;31160;49.500;7.772;2023-05-24T13:34:03;7.77;;;2.00;;
13793;SDS011;31160;49.500;7.772;2023-05-24T13:36:30;7.70;;;2.00;;
13793;SDS011;31160;49.500;7.772;2023-05-24T13:38:58;4.93;;;1.77;;
13793;SDS011;31160;49.500;7.772;2023-05-24T13:41:41;4.40;;;1.87;;
13793;SDS011;31160;49.500;7.772;2023-05-24T13:44:08;6.07;;;2.30;;
13793;SDS011;31160;49.500;7.772;2023-05-24T13:46:36;7.23;;;2.40;;
13793;SDS011;31160;49.500;7.772;2023-05-24T13:49:03;7.87;;;2.23;;
13793;SDS011;31160;49.500;7.772;2023-05-24T13:51:30;8.07;;;2.13;;
13793;SDS011;31160;49.500;7.772;2023-05-24T13:53:58;6.80;;;1.67;;
13793;SDS011;31160;49.500;7.772;2023-05-24T13:56:25;7.87;;;2.87;;
13793;SDS011;31160;49.500;7.772;2023-05-24T13:58:57;5.37;;;1.97;;
13793;SDS011;31160;49.500;7.772;2023-05-24T14:01:28;7.83;;;2.27;;
13793;SDS011;31160;49.500;7.772;2023-05-24T14:03:56;7.83;;;2.53;;
13793;SDS011;31160;49.500;7.772;2023-05-24T14:06:23;6.97;;;2.37;;
13793;SDS011;31160;49.500;7.772;2023-05-24T14:08:49;11.93;;;3.13;;
13793;SDS011;31160;49.500;7.772;2023-05-24T14:11:17;6.57;;;2.27;;
13793;SDS011;31160;49.500;7.772;2023-05-24T14:13:44;11.37;;;2.77;;
13793;SDS011;31160;49.500;7.772;2023-05-24T14:16:14;8.60;;;2.83;;
13793;SDS011;31160;49.500;7.772;2023-05-24T14:18:41;6.57;;;2.60;;
13793;SDS011;31160;49.500;7.772;2023-05-24T14:21:08;6.70;;;2.13;;
13793;SDS011;31160;49.500;7.772;2023-05-24T14:23:35;9.40;;;3.00;;
13793;SDS011;31160;49.500;7.772;2023-05-24T14:26:02;11.20;;;3.70;;
13793;SDS011;31160;49.500;7.772;2023-05-24T14:28:29;7.70;;;2.67;;
13793;SDS011;31160;49.500;7.772;2023-05-24T14:30:56;9.03;;;2.67;;
13793;SDS011;31160;49.500;7.772;2023-05-24T14:33:22;8.30;;;2.57;;
13793;SDS011;31160;49.500;7.772;2023-05-24T14:35:49;9.47;;;2.80;;
13793;SDS011;31160;49.500;7.772;2023-05-24T14:38:16;11.50;;;2.93;;
13793;SDS011;31160;49.500;7.772;2023-05-24T14:40:43;12.57;;;2.93;;
13793;SDS011;31160;49.500;7.772;2023-05-24T14:43:13;11.53;;;2.70;;
13793;SDS011;31160;49.500;7.772;2023-05-24T14:45:40;12.77;;;3.23;;
13793;SDS011;31160;49.500;7.772;2023-05-24T14:48:08;7.43;;;2.33;;
13793;SDS011;31160;49.500;7.772;2023-05-24T14:50:37;11.90;;;2.70;;
13793;SDS011;31160;49.500;7.772;2023-05-24T14:53:04;9.20;;;2.63;;
13793;SDS011;31160;49.500;7.772;2023-05-24T14:55:35;10.10;;;3.07;;
13793;SDS011;31160;49.500;7.772;2023-05-24T14:58:02;6.93;;;2.70;;
13793;SDS011;31160;49.500;7.772;2023-05-24T15:00:30;11.47;;;2.40;;
13793;SDS011;31160;49.500;7.772;2023-05-24T15:02:57;8.10;;;2.20;;
13793;SDS011;31160;49.500;7.772;2023-05-24T15:05:24;8.77;;;2.90;;
13793;SDS011;31160;49.500;7.772;2023-05-24T15:07:51;9.20;;;2.60;;
13793;SDS011;31160;49.500;7.772;2023-05-24T15:10:17;8.37;;;2.60;;
13793;SDS011;31160;49.500;7.772;2023-05-24T15:12:44;8.57;;;2.77;;